Terminal Aerodrome Forecast
Issued by NWS Lake Charles, LA

Home | Current Version | Previous Version | Text Only | Print | Product List | Glossary On
Versions: 1 2 3 4 5 6 7 8 9 10 11 12 13 14 15 16 17 18 19 20 21
000
FTUS44 KLCH 211741
TAFLCH
TAF
KLCH 211741Z 2118/2218 17016G24KT P6SM VCSH SCT015 BKN060
      TEMPO 2119/2123 BKN015
     FM220000 15008KT P6SM VCSH BKN015
     FM220300 14007KT 4SM BR BKN007=

USA.gov is the U.S. government's official web portal to all federal, state and local government web resources and services.